createdAt,value
2018-12-01T00:01:29.819Z,90.54
2018-12-01T00:03:57.937Z,91.42
2018-12-01T00:06:26.789Z,91.37
2018-12-01T00:08:54.997Z,91.66
2018-12-01T00:11:23.279Z,91.35
2018-12-01T00:13:52.479Z,91.41
2018-12-01T00:16:20.614Z,90.58
2018-12-01T00:18:48.823Z,90.82
2018-12-01T00:21:16.954Z,90.47
2018-12-01T00:23:45.343Z,90.57
2018-12-01T00:26:13.605Z,90.33
2018-12-01T00:28:41.817Z,89.69
2018-12-01T00:31:10.083Z,89.35
2018-12-01T00:33:38.241Z,88.86
2018-12-01T00:36:06.393Z,89.47
2018-12-01T00:38:34.615Z,89.55
2018-12-01T00:41:02.754Z,89.16
2018-12-01T00:43:30.880Z,88.76
2018-12-01T00:45:59.035Z,88.19
2018-12-01T00:48:27.230Z,88.30
2018-12-01T00:50:55.386Z,88.15
2018-12-01T00:53:23.660Z,87.75
2018-12-01T00:55:51.807Z,88.40
2018-12-01T00:58:19.946Z,88.11
2018-12-01T01:00:48.074Z,88.10
2018-12-01T01:03:16.267Z,88.34
2018-12-01T01:05:44.436Z,88.39
2018-12-01T01:08:12.564Z,87.81
2018-12-01T01:10:41.045Z,87.37
2018-12-01T01:13:09.216Z,87.28
2018-12-01T01:15:37.414Z,87.89
2018-12-01T01:18:05.783Z,88.27
2018-12-01T01:20:33.978Z,88.63
2018-12-01T01:23:02.220Z,89.10
2018-12-01T01:25:30.346Z,89.75
2018-12-01T01:27:58.495Z,89.13
2018-12-01T01:30:26.640Z,88.78
2018-12-01T01:33:06.038Z,89.29
2018-12-01T01:35:34.181Z,89.46
2018-12-01T01:38:02.337Z,88.99
2018-12-01T01:40:30.517Z,88.79
2018-12-01T01:42:58.802Z,88.54
2018-12-01T01:45:26.944Z,88.52
2018-12-01T01:47:55.154Z,88.25
2018-12-01T01:50:23.325Z,88.13
2018-12-01T01:52:51.468Z,87.66
2018-12-01T01:55:19.694Z,88.10
2018-12-01T01:57:48.298Z,88.36
2018-12-01T02:00:17.611Z,88.46
2018-12-01T02:02:52.652Z,88.80
2018-12-01T02:05:21.778Z,88.79
2018-12-01T02:07:50.087Z,89.44
2018-12-01T02:10:18.922Z,89.17
2018-12-01T02:12:47.063Z,88.78
2018-12-01T02:15:15.349Z,89.13
2018-12-01T02:17:43.578Z,89.53
2018-12-01T02:20:17.456Z,89.44
2018-12-01T02:22:45.866Z,89.09
2018-12-01T02:25:15.995Z,88.95
2018-12-01T02:27:44.237Z,89.04
2018-12-01T02:30:17.345Z,89.50
2018-12-01T02:32:45.615Z,89.08
2018-12-01T02:35:22.578Z,89.38
2018-12-01T02:37:50.813Z,89.76
2018-12-01T02:40:18.952Z,89.92
2018-12-01T02:42:47.092Z,89.52
2018-12-01T02:45:26.548Z,89.60
2018-12-01T02:47:54.783Z,89.55
2018-12-01T02:50:24.493Z,89.78
2018-12-01T02:52:53.636Z,89.66
2018-12-01T02:55:21.795Z,89.90
2018-12-01T02:57:51.362Z,89.62
2018-12-01T03:00:19.578Z,89.41
2018-12-01T03:02:47.750Z,89.70
2018-12-01T03:05:15.943Z,89.52
2018-12-01T03:07:44.057Z,89.70
2018-12-01T03:10:15.228Z,89.78
2018-12-01T03:12:43.375Z,89.62
2018-12-01T03:15:13.530Z,89.45
2018-12-01T03:17:41.738Z,89.37
2018-12-01T03:20:12.401Z,89.34
2018-12-01T03:22:40.662Z,88.86
2018-12-01T03:25:09.936Z,88.60
2018-12-01T03:27:38.380Z,88.61
2018-12-01T03:30:10.410Z,88.71
2018-12-01T03:32:38.799Z,89.00
2018-12-01T03:35:12.239Z,89.06
2018-12-01T03:37:41.818Z,88.83
2018-12-01T03:40:10.405Z,88.62
2018-12-01T03:42:38.709Z,88.88
2018-12-01T03:45:08.663Z,88.53
2018-12-01T03:47:36.805Z,88.84
2018-12-01T03:50:06.100Z,89.25
2018-12-01T03:52:34.275Z,88.88
2018-12-01T03:55:02.407Z,89.36
2018-12-01T03:57:30.576Z,89.11
2018-12-01T03:59:59.149Z,89.12
2018-12-01T04:02:27.459Z,89.06
2018-12-01T04:04:55.627Z,89.37
2018-12-01T04:07:23.869Z,89.36
2018-12-01T04:09:52.004Z,89.28
2018-12-01T04:12:20.822Z,89.44
2018-12-01T04:14:49.009Z,89.71
2018-12-01T04:17:17.219Z,88.75
2018-12-01T04:19:45.452Z,88.72
2018-12-01T04:22:13.755Z,89.27
2018-12-01T04:24:42.140Z,89.13
2018-12-01T04:27:10.270Z,88.86
2018-12-01T04:29:38.434Z,89.33
2018-12-01T04:32:06.586Z,89.50
2018-12-01T04:34:34.749Z,89.60
2018-12-01T04:37:02.935Z,89.53
2018-12-01T04:39:31.056Z,89.51
2018-12-01T04:41:59.365Z,89.01
2018-12-01T04:44:27.644Z,88.82
2018-12-01T04:46:55.917Z,89.14
2018-12-01T04:49:24.222Z,89.49
2018-12-01T04:51:52.376Z,89.04
2018-12-01T04:54:20.549Z,89.35
2018-12-01T04:56:48.728Z,89.27
2018-12-01T04:59:16.896Z,88.90
2018-12-01T05:01:45.098Z,88.75
2018-12-01T05:04:13.246Z,88.73
2018-12-01T05:06:41.450Z,88.84
2018-12-01T05:09:09.586Z,89.42
2018-12-01T05:11:37.999Z,88.94
2018-12-01T05:14:07.492Z,89.34
2018-12-01T05:16:37.380Z,89.53
2018-12-01T05:19:06.780Z,89.33
2018-12-01T05:21:37.460Z,88.85
2018-12-01T05:24:05.762Z,88.91
2018-12-01T05:26:37.135Z,89.27
2018-12-01T05:29:07.977Z,89.14
2018-12-01T05:31:39.057Z,89.31
2018-12-01T05:34:08.927Z,89.30
2018-12-01T05:36:37.194Z,89.24
2018-12-01T05:39:09.295Z,89.22
2018-12-01T05:41:37.452Z,89.91
2018-12-01T05:44:05.609Z,89.11
2018-12-01T05:46:33.787Z,88.91
2018-12-01T05:49:01.914Z,88.89
2018-12-01T05:51:30.213Z,89.14
2018-12-01T05:53:58.406Z,89.69
2018-12-01T05:56:26.599Z,89.49
2018-12-01T05:58:56.090Z,90.15
2018-12-01T06:01:24.260Z,90.32
2018-12-01T06:03:52.433Z,89.87
2018-12-01T06:06:23.911Z,89.77
2018-12-01T06:08:52.071Z,91.03
2018-12-01T06:11:20.242Z,91.26
2018-12-01T06:13:48.451Z,92.38
2018-12-01T06:16:16.586Z,92.85
2018-12-01T06:18:44.751Z,93.18
2018-12-01T06:21:13.022Z,93.15
2018-12-01T06:23:41.211Z,93.22
2018-12-01T06:26:09.410Z,93.35
2018-12-01T06:28:37.569Z,94.35
2018-12-01T06:31:05.740Z,93.44
2018-12-01T06:33:33.896Z,94.19
2018-12-01T06:36:02.032Z,94.51
2018-12-01T06:38:30.267Z,93.85
2018-12-01T06:40:58.413Z,94.38
2018-12-01T06:43:26.586Z,93.92
2018-12-01T06:45:54.737Z,93.06
2018-12-01T06:48:23.027Z,93.47
2018-12-01T06:50:51.222Z,93.25
2018-12-01T06:53:19.353Z,93.70
2018-12-01T06:55:47.552Z,93.92
2018-12-01T06:58:15.687Z,93.73
2018-12-01T07:00:44.726Z,94.16
2018-12-01T07:03:12.905Z,92.75
2018-12-01T07:05:41.078Z,92.84
2018-12-01T07:08:09.345Z,93.29
2018-12-01T07:10:37.511Z,93.84
2018-12-01T07:13:06.723Z,94.65
2018-12-01T07:15:38.165Z,93.31
2018-12-01T07:18:17.683Z,93.93
2018-12-01T07:20:45.866Z,93.77
2018-12-01T07:23:14.000Z,93.96
2018-12-01T07:25:42.124Z,94.27
2018-12-01T07:28:10.400Z,93.63
2018-12-01T07:30:38.672Z,94.08
2018-12-01T07:33:06.863Z,94.38
2018-12-01T07:35:35.031Z,94.30
2018-12-01T07:38:03.158Z,94.27
2018-12-01T07:40:31.366Z,93.64
2018-12-01T07:42:59.536Z,94.04
2018-12-01T07:45:27.762Z,94.07
2018-12-01T07:47:55.893Z,93.67
2018-12-01T07:50:24.324Z,94.12
2018-12-01T07:52:53.667Z,93.44
2018-12-01T07:55:21.857Z,93.93
2018-12-01T07:57:50.178Z,93.63
2018-12-01T08:00:18.595Z,92.94
2018-12-01T08:02:47.903Z,93.19
2018-12-01T08:05:16.070Z,93.39
2018-12-01T08:07:44.344Z,92.43
2018-12-01T08:10:14.506Z,91.98
2018-12-01T08:12:42.671Z,92.85
2018-12-01T08:15:12.887Z,92.50
2018-12-01T08:17:41.144Z,90.94
2018-12-01T08:20:12.258Z,91.40
2018-12-01T08:22:40.413Z,91.01
2018-12-01T08:25:14.991Z,91.40
2018-12-01T08:27:43.186Z,91.56
2018-12-01T08:30:15.446Z,91.02
2018-12-01T08:32:43.612Z,90.72
2018-12-01T08:35:11.774Z,90.72
2018-12-01T08:37:40.048Z,90.63
2018-12-01T08:40:11.593Z,90.02
2018-12-01T08:42:39.779Z,89.94
2018-12-01T08:45:10.096Z,89.43
2018-12-01T08:47:38.529Z,89.62
2018-12-01T08:50:09.916Z,89.94
2018-12-01T08:52:38.296Z,88.92
2018-12-01T08:55:08.217Z,88.76
2018-12-01T08:57:36.346Z,88.78
2018-12-01T09:00:08.923Z,88.78
2018-12-01T09:02:37.054Z,88.58
2018-12-01T09:05:05.939Z,88.03
2018-12-01T09:07:34.106Z,87.61
2018-12-01T09:10:02.230Z,88.17
2018-12-01T09:12:30.448Z,87.30
2018-12-01T09:14:58.718Z,88.01
2018-12-01T09:17:26.899Z,87.99
2018-12-01T09:19:55.327Z,87.83
2018-12-01T09:22:23.474Z,88.02
2018-12-01T09:24:51.609Z,87.50
2018-12-01T09:27:22.500Z,87.56
2018-12-01T09:29:48.078Z,87.41
2018-12-01T09:32:16.976Z,87.67
2018-12-01T09:34:45.121Z,87.59
2018-12-01T09:37:13.405Z,87.54
2018-12-01T09:39:41.578Z,87.45
2018-12-01T09:42:09.747Z,87.50
2018-12-01T09:44:37.956Z,87.56
2018-12-01T09:47:06.618Z,86.12
2018-12-01T09:49:34.773Z,86.69
2018-12-01T09:52:03.731Z,85.84
2018-12-01T09:54:31.942Z,84.64
2018-12-01T09:57:00.120Z,84.63
2018-12-01T09:59:28.238Z,84.25
2018-12-01T10:01:56.888Z,84.09
2018-12-01T10:04:25.520Z,84.28
2018-12-01T10:06:53.642Z,83.58
2018-12-01T10:09:21.809Z,82.45
2018-12-01T10:11:50.520Z,83.03
2018-12-01T10:14:18.254Z,82.61
2018-12-01T10:16:46.465Z,83.66
2018-12-01T10:19:15.474Z,82.93
2018-12-01T10:21:44.012Z,82.07
2018-12-01T10:24:12.207Z,82.76
2018-12-01T10:26:40.343Z,82.79
2018-12-01T10:29:08.526Z,82.29
2018-12-01T10:31:36.672Z,82.77
2018-12-01T10:34:05.312Z,82.55
2018-12-01T10:36:34.114Z,83.16
2018-12-01T10:39:03.675Z,82.48
2018-12-01T10:41:30.524Z,82.77
2018-12-01T10:43:58.686Z,82.09
2018-12-01T10:46:27.741Z,82.40
2018-12-01T10:48:55.912Z,83.15
2018-12-01T10:51:24.030Z,82.83
2018-12-01T10:53:52.676Z,82.75
2018-12-01T10:56:20.933Z,83.20
2018-12-01T10:58:49.073Z,83.11
2018-12-01T11:01:22.630Z,83.52
2018-12-01T11:03:50.850Z,83.76
2018-12-01T11:06:20.032Z,83.58
2018-12-01T11:08:48.383Z,83.86
2018-12-01T11:11:16.585Z,83.95
2018-12-01T11:13:45.331Z,82.97
2018-12-01T11:16:13.542Z,83.62
2018-12-01T11:18:41.671Z,83.10
2018-12-01T11:21:09.820Z,83.09
2018-12-01T11:23:38.003Z,83.40
2018-12-01T11:26:06.346Z,83.03
2018-12-01T11:28:35.086Z,83.46
2018-12-01T11:31:03.215Z,83.54
2018-12-01T11:33:31.384Z,83.37
2018-12-01T11:35:59.523Z,83.97
2018-12-01T11:38:27.825Z,83.83
2018-12-01T11:40:55.954Z,83.99
2018-12-01T11:43:24.142Z,83.69
2018-12-01T11:45:52.342Z,83.77
2018-12-01T11:48:20.513Z,84.03
2018-12-01T11:50:48.687Z,83.79
2018-12-01T11:53:16.827Z,83.45
2018-12-01T11:55:45.027Z,82.98
2018-12-01T11:58:13.481Z,82.75
2018-12-01T12:00:47.561Z,82.98
2018-12-01T12:03:16.039Z,82.97
2018-12-01T12:05:44.280Z,82.67
2018-12-01T12:08:19.556Z,82.92
2018-12-01T12:10:47.682Z,81.71
2018-12-01T12:13:15.878Z,81.17
2018-12-01T12:15:44.254Z,80.90
2018-12-01T12:18:12.519Z,81.60
2018-12-01T12:20:40.694Z,81.27
2018-12-01T12:23:09.786Z,81.58
2018-12-01T12:25:37.971Z,80.86
2018-12-01T12:28:06.436Z,80.80
2018-12-01T12:30:34.607Z,80.09
2018-12-01T12:33:02.832Z,80.37
2018-12-01T12:35:30.972Z,80.61
2018-12-01T12:38:00.533Z,80.78
2018-12-01T12:40:28.666Z,79.97
2018-12-01T12:42:58.606Z,79.91
2018-12-01T12:45:26.825Z,79.65
2018-12-01T12:47:54.968Z,79.75
2018-12-01T12:50:23.212Z,80.08
2018-12-01T12:52:52.487Z,79.48
2018-12-01T12:55:23.522Z,78.74
2018-12-01T12:57:51.761Z,79.21
2018-12-01T13:00:23.895Z,78.81
2018-12-01T13:02:54.478Z,79.26
2018-12-01T13:05:29.812Z,79.24
2018-12-01T13:07:57.955Z,79.13
2018-12-01T13:10:26.583Z,79.92
2018-12-01T13:12:54.726Z,79.15
2018-12-01T13:15:22.979Z,79.81
2018-12-01T13:17:51.115Z,79.42
2018-12-01T13:20:20.183Z,78.61
2018-12-01T13:22:52.971Z,79.56
2018-12-01T13:25:21.155Z,79.24
2018-12-01T13:27:57.017Z,79.55
2018-12-01T13:30:28.780Z,79.60
2018-12-01T13:32:56.903Z,79.45
2018-12-01T13:35:25.082Z,79.45
2018-12-01T13:37:59.679Z,79.43
2018-12-01T13:40:27.921Z,79.43
2018-12-01T13:42:56.047Z,79.01
2018-12-01T13:45:24.485Z,78.76
2018-12-01T13:47:52.643Z,79.06
2018-12-01T13:50:21.504Z,79.30
2018-12-01T13:52:55.055Z,80.25
2018-12-01T13:55:23.221Z,78.46
2018-12-01T13:57:51.353Z,80.67
2018-12-01T14:00:25.516Z,80.92
2018-12-01T14:02:53.657Z,82.74
2018-12-01T14:05:21.933Z,84.20
2018-12-01T14:07:51.503Z,84.72
2018-12-01T14:10:23.798Z,86.18
2018-12-01T14:12:56.202Z,86.49
2018-12-01T14:15:24.582Z,87.49
2018-12-01T14:17:52.833Z,88.75
2018-12-01T14:20:24.179Z,88.24
2018-12-01T14:22:52.366Z,88.38
2018-12-01T14:25:21.556Z,89.82
2018-12-01T14:27:58.255Z,90.10
2018-12-01T14:30:26.376Z,91.18
2018-12-01T14:32:54.573Z,90.83
2018-12-01T14:35:30.539Z,90.35
2018-12-01T14:38:01.162Z,91.32
2018-12-01T14:40:29.373Z,90.96
2018-12-01T14:42:57.505Z,90.83
2018-12-01T14:45:25.674Z,90.79
2018-12-01T14:47:54.326Z,90.91
2018-12-01T14:50:22.456Z,90.75
2018-12-01T14:52:50.712Z,90.92
2018-12-01T14:55:18.883Z,90.77
2018-12-01T14:57:47.627Z,91.07
2018-12-01T15:00:23.645Z,90.78
2018-12-01T15:02:52.702Z,90.68
2018-12-01T15:05:20.851Z,91.98
2018-12-01T15:07:50.107Z,91.17
2018-12-01T15:10:19.285Z,90.66
2018-12-01T15:12:47.435Z,90.87
2018-12-01T15:15:17.763Z,91.10
2018-12-01T15:17:44.968Z,90.52
2018-12-01T15:20:17.781Z,90.77
2018-12-01T15:22:47.911Z,90.11
2018-12-01T15:25:22.008Z,90.09
2018-12-01T15:27:50.440Z,90.91
2018-12-01T15:30:20.309Z,90.07
2018-12-01T15:32:51.195Z,91.01
2018-12-01T15:35:19.336Z,90.05
2018-12-01T15:37:47.591Z,90.21
2018-12-01T15:40:17.519Z,91.11
2018-12-01T15:42:45.643Z,90.35
2018-12-01T15:45:16.871Z,89.34
2018-12-01T15:47:45.092Z,88.53
2018-12-01T15:50:17.053Z,88.80
2018-12-01T15:52:48.808Z,89.01
2018-12-01T15:55:16.939Z,88.18
2018-12-01T15:57:45.098Z,88.03
2018-12-01T16:00:15.537Z,88.23
2018-12-01T16:02:43.930Z,87.92
2018-12-01T16:05:12.929Z,88.44
2018-12-01T16:07:41.093Z,87.86
2018-12-01T16:10:11.543Z,87.56
2018-12-01T16:12:39.767Z,87.04
2018-12-01T16:15:20.448Z,87.65
2018-12-01T16:17:48.777Z,87.19
2018-12-01T16:20:17.022Z,87.30
2018-12-01T16:22:45.318Z,87.14
2018-12-01T16:25:14.782Z,86.54
2018-12-01T16:27:44.016Z,87.07
2018-12-01T16:30:16.740Z,87.38
2018-12-01T16:32:45.806Z,87.99
2018-12-01T16:35:14.798Z,86.62
2018-12-01T16:37:43.522Z,87.05
2018-12-01T16:40:17.398Z,86.72
2018-12-01T16:42:45.530Z,86.57
2018-12-01T16:45:14.674Z,86.18
2018-12-01T16:47:42.884Z,86.33
2018-12-01T16:50:14.341Z,86.77
2018-12-01T16:52:44.052Z,86.75
2018-12-01T16:55:14.432Z,87.15
2018-12-01T16:57:42.742Z,88.42
2018-12-01T17:00:14.411Z,87.96
2018-12-01T17:02:42.941Z,88.54
2018-12-01T17:05:12.281Z,88.48
2018-12-01T17:07:40.470Z,89.15
2018-12-01T17:10:13.613Z,88.67
2018-12-01T17:12:42.321Z,89.30
2018-12-01T17:15:12.819Z,88.85
2018-12-01T17:17:40.940Z,88.90
2018-12-01T17:20:13.235Z,89.83
2018-12-01T17:22:42.258Z,89.37
2018-12-01T17:25:11.668Z,88.95
2018-12-01T17:27:39.826Z,89.53
2018-12-01T17:30:13.549Z,88.83
2018-12-01T17:32:41.765Z,89.32
2018-12-01T17:35:11.548Z,89.07
2018-12-01T17:37:39.693Z,88.99
2018-12-01T17:40:10.776Z,89.34
2018-12-01T17:42:38.943Z,90.27
2018-12-01T17:45:09.579Z,89.86
2018-12-01T17:47:37.867Z,89.48
2018-12-01T17:50:13.679Z,90.40
2018-12-01T17:52:46.597Z,90.73
2018-12-01T17:55:15.822Z,90.59
2018-12-01T17:57:44.951Z,90.46
2018-12-01T18:00:18.585Z,91.13
2018-12-01T18:02:46.950Z,91.33
2018-12-01T18:05:16.776Z,90.95
2018-12-01T18:07:45.818Z,90.64
2018-12-01T18:10:14.544Z,91.41
2018-12-01T18:12:43.414Z,91.54
2018-12-01T18:15:13.732Z,91.23
2018-12-01T18:17:42.406Z,91.58
2018-12-01T18:20:16.977Z,91.55
2018-12-01T18:22:46.475Z,91.58
2018-12-01T18:25:14.932Z,91.28
2018-12-01T18:27:43.106Z,91.75
2018-12-01T18:30:15.168Z,91.53
2018-12-01T18:32:43.357Z,91.28
2018-12-01T18:35:11.487Z,91.59
2018-12-01T18:37:39.971Z,91.06
2018-12-01T18:40:12.910Z,91.99
2018-12-01T18:42:41.058Z,91.38
2018-12-01T18:45:12.812Z,91.01
2018-12-01T18:47:40.944Z,91.58
2018-12-01T18:50:13.215Z,91.75
2018-12-01T18:52:41.638Z,92.11
2018-12-01T18:55:13.645Z,91.97
2018-12-01T18:57:41.963Z,91.93
2018-12-01T19:00:17.650Z,92.33
2018-12-01T19:02:46.112Z,92.83
2018-12-01T19:05:14.382Z,92.70
2018-12-01T19:07:42.582Z,93.37
2018-12-01T19:10:15.235Z,92.43
2018-12-01T19:12:43.423Z,93.19
2018-12-01T19:15:12.691Z,93.10
2018-12-01T19:17:40.842Z,93.21
2018-12-01T19:20:12.050Z,93.02
2018-12-01T19:22:40.448Z,93.10
2018-12-01T19:25:13.603Z,92.72
2018-12-01T19:27:41.788Z,93.32
2018-12-01T19:30:12.018Z,92.62
2018-12-01T19:32:42.180Z,92.87
2018-12-01T19:35:11.818Z,92.86
2018-12-01T19:37:39.948Z,93.34
2018-12-01T19:40:14.791Z,94.14
2018-12-01T19:42:42.947Z,92.90
2018-12-01T19:45:11.130Z,93.03
2018-12-01T19:47:39.256Z,93.46
2018-12-01T19:50:10.693Z,93.50
2018-12-01T19:52:39.457Z,93.93
2018-12-01T19:55:10.305Z,93.39
2018-12-01T19:57:38.877Z,93.60
2018-12-01T20:00:11.646Z,93.21
2018-12-01T20:02:39.859Z,93.83
2018-12-01T20:05:09.918Z,93.52
2018-12-01T20:07:38.066Z,93.11
2018-12-01T20:10:11.625Z,93.57
2018-12-01T20:12:39.929Z,93.91
2018-12-01T20:15:15.676Z,93.33
2018-12-01T20:17:43.869Z,93.33
2018-12-01T20:20:12.065Z,93.75
2018-12-01T20:22:40.343Z,93.05
2018-12-01T20:25:10.621Z,93.59
2018-12-01T20:27:38.803Z,93.90
2018-12-01T20:30:17.466Z,93.20
2018-12-01T20:32:45.685Z,93.67
2018-12-01T20:35:18.890Z,93.68
2018-12-01T20:37:50.253Z,93.86
2018-12-01T20:40:18.392Z,93.55
2018-12-01T20:42:46.576Z,93.79
2018-12-01T20:45:14.825Z,93.15
2018-12-01T20:47:43.019Z,93.75
2018-12-01T20:50:13.961Z,93.16
2018-12-01T20:52:42.438Z,93.97
2018-12-01T20:55:16.556Z,93.87
2018-12-01T20:57:46.543Z,94.13
2018-12-01T21:00:14.765Z,93.78
2018-12-01T21:02:43.306Z,93.44
2018-12-01T21:05:14.965Z,93.79
2018-12-01T21:07:43.104Z,93.91
2018-12-01T21:10:15.322Z,93.64
2018-12-01T21:12:43.545Z,93.70
2018-12-01T21:15:12.838Z,93.98
2018-12-01T21:17:42.507Z,94.32
2018-12-01T21:20:13.082Z,94.28
2018-12-01T21:22:42.001Z,94.55
2018-12-01T21:25:19.711Z,94.44
2018-12-01T21:27:47.891Z,94.58
2018-12-01T21:30:18.433Z,94.22
2018-12-01T21:32:47.918Z,94.42
2018-12-01T21:35:16.066Z,94.75
2018-12-01T21:37:44.195Z,94.98
2018-12-01T21:40:17.050Z,94.94
2018-12-01T21:42:45.350Z,94.62
2018-12-01T21:45:14.641Z,93.97
2018-12-01T21:47:42.903Z,94.17
2018-12-01T21:50:16.011Z,94.02
2018-12-01T21:52:46.874Z,94.13
2018-12-01T21:55:15.016Z,94.51
2018-12-01T21:57:44.420Z,94.98
2018-12-01T22:00:19.730Z,94.77
2018-12-01T22:02:49.740Z,94.76
2018-12-01T22:05:19.513Z,93.96
2018-12-01T22:07:47.809Z,94.39
2018-12-01T22:10:16.655Z,94.72
2018-12-01T22:12:44.848Z,94.62
2018-12-01T22:15:15.308Z,94.72
2018-12-01T22:17:43.607Z,94.96
2018-12-01T22:20:13.320Z,94.75
2018-12-01T22:22:41.476Z,94.71
2018-12-01T22:25:10.494Z,94.59
2018-12-01T22:27:38.787Z,94.47
2018-12-01T22:30:11.217Z,94.88
2018-12-01T22:32:39.505Z,94.44
2018-12-01T22:35:24.484Z,94.72
2018-12-01T22:37:53.345Z,94.88
2018-12-01T22:40:25.662Z,95.15
2018-12-01T22:42:55.268Z,95.06
2018-12-01T22:45:23.423Z,94.71
2018-12-01T22:47:51.710Z,95.42
2018-12-01T22:50:20.807Z,95.09
2018-12-01T22:52:49.479Z,94.97
2018-12-01T22:55:21.766Z,95.15
2018-12-01T22:57:54.330Z,95.19
2018-12-01T23:00:43.365Z,94.65
2018-12-01T23:03:12.410Z,94.77
2018-12-01T23:05:40.746Z,94.50
2018-12-01T23:08:12.304Z,94.76
2018-12-01T23:10:40.611Z,95.11
2018-12-01T23:13:08.951Z,94.80
2018-12-01T23:15:37.079Z,94.86
2018-12-01T23:18:07.745Z,94.77
2018-12-01T23:20:35.951Z,94.36
2018-12-01T23:23:04.132Z,94.84
2018-12-01T23:25:32.268Z,94.53
2018-12-01T23:28:00.407Z,94.90
2018-12-01T23:30:29.639Z,94.91
2018-12-01T23:33:02.163Z,94.50
2018-12-01T23:35:30.789Z,94.81
2018-12-01T23:37:59.194Z,95.10
2018-12-01T23:40:28.152Z,94.76
2018-12-01T23:42:55.593Z,95.00
2018-12-01T23:45:24.301Z,94.78
2018-12-01T23:47:52.436Z,94.45
2018-12-01T23:50:23.751Z,94.62
2018-12-01T23:52:54.084Z,94.81
2018-12-01T23:55:22.293Z,94.86
2018-12-01T23:57:50.438Z,94.70
